General Aviation Weather

Text Reports

Enter one or more of the following location identifiers separated by a space:

Zip Code, Four-Character ICAO or Three-Character IATA airport codes.

METAR - Aviation Routine Weather Report
KOXB - Ocean City, Maryland
Updated at 8:53 PM GMT on November 27, 2014 (3:53 PM EST):
METAR KOXB 272053Z AUTO 35010KT 10SM OVC045 06/M01 A3004 RMK AO2 SLP170 6//// T00561006 53009 TSNO PNO $
TAF - Terminal Area Forecast
KOXB - Ocean City, Maryland
Updated at 8:53 PM GMT on November 27, 2014 (3:53 PM EST):
No TAF is currently available for this location.
Decoded:
No decoded TAF is available.
PIREP - Pilot Weather Report
KOXB - Ocean City, Maryland
Updated at 8:53 PM GMT on November 27, 2014 (3:53 PM EST):
No PIREP is currently available for this location.
AIRMET - Airmens Meteorological Information
KOXB - Ocean City, Maryland
Updated at 8:53 PM GMT on November 27, 2014 (3:53 PM EST):
No AIRMET is currently available for this location.
SIGMET - Significant Meteorological Information
KOXB - Ocean City, Maryland
Updated at 8:53 PM GMT on November 27, 2014 (3:53 PM EST):
No SIGMET is currently available for this location.
NOTAM - Notice to Airmen
KOXB - Ocean City, Maryland
Updated at 8:53 PM GMT on November 27, 2014 (3:53 PM EST):
No NOTAM is currently available for this location.
Forecast Area
KOXB - Ocean City, Maryland
Updated at 8:53 PM GMT on November 27, 2014 (3:53 PM EST):
No NOTAM is currently available for this location.
Aviation Weather Maps